Aérodrome :
LOGIN :

S'inscrire | Disclaimer

   EN    FR    IT 

 










Légende :    VFR   VFR Marginal   IFR   IFR Intensif   IFR Très Intensif
Visi : 
Plafond : 
>= 8 km
>= 3000ft
5 à 8 km
1000 à 3000 ft
1500m à 5 km
500 à 1000 ft
800 à 1500m
200 à 500 ft
< 800m
< 200 ft
Symboles :   Orages  Brouillard  Fortes neiges  Fortes précipitations  Vent > 20 kt
SIGMETs :   Divers  Orages  Givrage  Turbulence  Onde Orograph.  Cendres Volcan.







- Altitude de l'aérodrome : 1708 ft
- Code IATA : SJJ


LQSA - Sarajevo

DERNIER METAR :
  • 210930Z 15004KT 100V220 9999 SCT050 09/03 Q1033 NOSIG

METARs EXPIRÉS :
  • 210900Z VRB02KT 9999 SCT050 07/07 Q1033 NOSIG
  • 210830Z VRB01KT 9999 FEW020 SCT050 06/06 Q1034 NOSIG
  • 210800Z VRB02KT 8000 FEW020 SCT045 05/05 Q1034 NOSIG
  • 210730Z VRB01KT 8000 FEW015 SCT045 05/05 Q1034 NOSIG
  • 210700Z VRB02KT 8000 FEW010 SCT045 04/04 Q1033 NOSIG

TAF TAF LQSA
Valide du 21 à 06h jusqu'au 22 à 06h UTC


210500Z 2106/2206 06006KT 7000 BKN045 TX10/2114Z TNM01/2205Z
BECMG 2200/2203 3000 BR
PROB30 2204/2206 0600 FZFG BKN001
Pas de NOTAMs connus pour ce terrain.



MET'MAP, la Météo Aéronautique d'un coup d'oeil ! - Copyright ORBIFLY Décembre 2007 - Disclaimer

ORBIFLY MET'MAP TEAM :

Programmation & Développement : Alexandra Zaïnal
Conception & Développement : Baudouin d'Aumeries
Co-Programmation & Développement : Marc-Olivier Méhu
Soutien technique & logistique : Manuel Goepfert

Contact : metmap@orbifly.com




SOURCES & CREDITS :

   NOAA